Osage, Minnesota
Current Conditions -  °F | °C
As of 4:53 AM on Friday 28 Nov 2014 (Local Time) from KPKD Reporting Station
Overcast Overcast  
Wind Chill: -3°   Ceiling: 3400
Heat Index:   Visibility: 10mi
Dew Point:   Wind: 7mph
Humidity: 83%   Direction: 110°ESE
Pressure: 29.99"   Gusts: NA
Location:  46.92°N, 95.26°W
Report Text: KPKD 281053Z AUTO 11006KT 10SM FEW014 BKN034 OVC065 M13/M16 A2999 RMK AO2 SLP190 T11331156
Loading
Personal Weather Stations






























Interactive Weather Map New forecast layout! Learn more

10-Day Weather Forecast

Advertisements
Track Severe Weather on mobile